Data for 05/16/2014

Time Sea-Level Adjusted Pressure Absolute Pressure Temperature Relative Humidity Dew Point   
(mb) (inHg) (mb) (inHg) (C) (F) (%) (C) (F)
00:05 1021 30.15 851 25.13 12.6 54.6 57 4.3 39.7
00:10 1021 30.15 851 25.13 12.4 54.4 57 4.2 39.6
00:15 1022 30.18 851 25.13 12.3 54.2 58 4.2 39.6
00:20 1022 30.18 851 25.13 12.2 54 58 4.2 39.6
00:25 1022 30.18 851 25.13 12.1 53.9 58 4.3 39.7
00:30 1022 30.18 851 25.13 12 53.6 59 4.3 39.7
00:35 1022 30.18 851 25.13 11.9 53.4 60 4.4 39.9
00:40 1022 30.18 851 25.13 11.8 53.2 61 4.4 40
00:45 1022 30.18 851 25.13 11.6 53 61 4.4 39.9
00:50 1022 30.18 851 25.13 11.5 52.8 61 4.4 40
00:55 1022 30.18 851 25.13 11.5 52.7 62 4.4 39.9
01:00 1022 30.18 851 25.13 11.4 52.6 62 4.5 40
01:05 1022 30.18 851 25.13 11.3 52.4 63 4.6 40.2
01:10 1022 30.18 851 25.13 11.2 52.1 63 4.5 40.1
01:15 1022 30.18 851 25.13 11 51.7 65 4.6 40.3
01:20 1022 30.18 851 25.13 10.7 51.2 66 4.5 40.2
01:25 1022 30.18 851 25.13 10.4 50.8 66 4.4 39.9
01:30 1022 30.18 851 25.13 10.3 50.5 66 4.3 39.7
01:35 1022 30.18 851 25.13 10.2 50.3 67 4.3 39.8
01:40 1022 30.18 851 25.13 10.1 50.2 67 4.3 39.7
01:45 1022 30.18 851 25.13 10 50 68 4.3 39.8
01:50 1022 30.18 851 25.13 9.8 49.7 68 4.3 39.8
01:55 1022 30.18 851 25.13 9.6 49.3 69 4.2 39.6
02:00 1022 30.18 851 25.13 9.5 49.2 69 4.1 39.5
02:05 1022 30.18 851 25.13 9.5 49.1 69 4.1 39.3
02:10 1022 30.18 851 25.13 9.4 49 69 4.1 39.4
02:15 1022 30.18 851 25.13 9.3 48.7 70 4.1 39.3
02:20 1022 30.18 851 25.13 9.2 48.6 69 3.9 39.1
02:25 1022 30.18 851 25.13 9.3 48.8 69 4 39.2
02:30 1022 30.18 851 25.13 9.2 48.6 70 4.1 39.4
02:35 1022 30.18 851 25.13 9.1 48.3 71 4 39.3
02:40 1022 30.18 851 25.13 9.1 48.4 70 3.9 39
02:45 1022 30.18 851 25.13 9.2 48.5 70 3.9 39.1
02:50 1022 30.18 851 25.13 9.3 48.7 69 3.9 39.1
02:55 1022 30.18 851 25.13 9.2 48.5 70 4 39.3
03:00 1022 30.18 851 25.13 9 48.2 71 4 39.1
03:05 1022 30.18 851 25.13 9 48.2 71 3.9 39.1
03:10 1022 30.18 851 25.13 9 48.1 71 4 39.2
03:15 1022 30.18 851 25.13 8.9 48 71 3.9 39.1
03:20 1022 30.18 851 25.13 8.9 47.9 71 3.9 39.1
03:25 1022 30.18 851 25.13 8.8 47.9 71 3.8 38.9
03:30 1022 30.18 851 25.13 8.8 47.9 71 3.8 38.9
03:35 1022 30.18 851 25.13 8.8 47.8 71 3.8 38.8
03:40 1022 30.18 851 25.13 8.7 47.7 71 3.8 38.8
03:45 1022 30.18 851 25.13 8.7 47.7 71 3.7 38.7
03:50 1022 30.18 851 25.13 8.7 47.7 71 3.7 38.7
03:55 1022 30.18 851 25.13 8.6 47.6 71 3.6 38.6
04:00 1022 30.18 851 25.13 8.7 47.6 71 3.6 38.5
04:05 1022 30.18 851 25.13 8.7 47.6 71 3.7 38.6
04:10 1022 30.18 851 25.13 8.6 47.6 71 3.6 38.5
04:15 1022 30.18 851 25.13 8.7 47.6 70 3.6 38.4
04:20 1022 30.18 851 25.13 8.7 47.7 69 3.4 38.2
04:25 1022 30.18 851 25.13 8.7 47.7 69 3.4 38.2
04:30 1022 30.18 851 25.13 8.8 47.8 69 3.5 38.2
04:35 1022 30.18 851 25.13 8.8 47.9 69 3.5 38.3
04:40 1022 30.18 851 25.13 8.7 47.7 69 3.4 38.2
04:45 1022 30.18 851 25.13 8.7 47.7 69 3.4 38.2
04:50 1022 30.18 851 25.13 8.5 47.3 70 3.3 38
04:55 1022 30.18 852 25.16 8.4 47.2 70 3.3 37.9
05:00 1022 30.18 852 25.16 8.4 47.1 70 3.3 37.9
05:05 1022 30.18 852 25.16 8.4 47 70 3.2 37.7
05:10 1023 30.21 852 25.16 8.4 47.1 69 3.1 37.5
05:15 1023 30.21 852 25.16 8.5 47.4 68 3.1 37.5
05:20 1023 30.21 852 25.16 8.6 47.5 68 3.1 37.5
05:25 1023 30.21 852 25.16 8.7 47.7 68 3.2 37.7
05:30 1023 30.21 852 25.16 8.7 47.6 68 3.1 37.5
05:35 1023 30.21 852 25.16 8.6 47.5 68 3.1 37.5
05:40 1023 30.21 852 25.16 8.7 47.6 68 3.1 37.6
05:45 1023 30.21 852 25.16 8.7 47.6 68 3.2 37.7
05:50 1023 30.21 852 25.16 8.7 47.6 68 3.2 37.7
05:55 1023 30.21 852 25.16 8.7 47.6 68 3.2 37.8
06:00 1023 30.21 852 25.16 8.7 47.6 68 3.2 37.7
06:05 1023 30.21 852 25.16 8.7 47.6 69 3.3 37.9
06:10 1023 30.21 852 25.16 8.6 47.5 69 3.2 37.8
06:15 1023 30.21 852 25.16 8.7 47.6 68 3.2 37.7
06:20 1023 30.21 852 25.16 8.7 47.7 68 3.2 37.8
06:25 1023 30.21 852 25.16 8.8 47.9 68 3.3 37.9
06:30 1023 30.21 852 25.16 8.8 47.9 68 3.3 38
06:35 1023 30.21 852 25.16 8.9 48 68 3.3 37.9
06:40 1023 30.21 852 25.16 8.9 48.1 69 3.5 38.3
06:45 1023 30.21 852 25.16 9 48.2 69 3.6 38.5
06:50 1023 30.21 852 25.16 9.2 48.5 68 3.6 38.5
06:55 1023 30.21 852 25.16 9.2 48.5 67 3.4 38.2
07:00 1023 30.21 852 25.16 9.2 48.6 66 3.1 37.7
07:05 1023 30.21 852 25.16 9.2 48.5 65 2.9 37.2
07:10 1023 30.21 852 25.16 9.3 48.7 63 2.7 36.8
07:15 1023 30.21 852 25.16 9.4 48.9 62 2.6 36.7
07:20 1022 30.18 852 25.16 9.6 49.2 62 2.7 36.9
07:25 1022 30.18 852 25.16 9.7 49.5 60 2.4 36.3
07:30 1022 30.18 852 25.16 9.8 49.6 59 2.3 36.2
07:35 1022 30.18 852 25.16 9.8 49.7 60 2.5 36.4
07:40 1022 30.18 852 25.16 10.1 50.2 58 2.2 36
07:45 1023 30.21 852 25.16 10.4 50.7 57 2.2 36
07:50 1023 30.21 852 25.16 10.4 50.6 57 2.3 36.2
07:55 1023 30.21 852 25.16 10.2 50.3 58 2.2 36
08:00 1023 30.21 852 25.16 10.2 50.3 58 2.2 36
08:05 1023 30.21 852 25.16 10.2 50.4 58 2.5 36.5
08:10 1023 30.21 852 25.16 10.3 50.5 58 2.4 36.3
08:15 1023 30.21 852 25.16 10.4 50.7 56 2 35.6
08:20 1023 30.21 852 25.16 10.5 50.8 55 2 35.5
08:25 1023 30.21 852 25.16 10.7 51.2 56 2.2 36
08:30 1023 30.21 852 25.16 10.9 51.5 55 2.2 35.9
08:35 1023 30.21 852 25.16 11 51.8 55 2.4 36.3
08:40 1023 30.21 852 25.16 11.3 52.3 55 2.6 36.6
08:45 1023 30.21 852 25.16 11.5 52.7 54 2.6 36.6
08:50 1023 30.21 852 25.16 11.7 53 52 2.3 36.2
08:55 1022 30.18 852 25.16 11.8 53.2 53 2.5 36.5
09:00 1022 30.18 852 25.16 11.8 53.3 52 2.4 36.4
09:05 1022 30.18 852 25.16 12 53.6 51 2.3 36.1
09:10 1022 30.18 852 25.16 12.3 54.1 50 2.2 36
09:15 1022 30.18 851 25.13 12.7 54.9 48 2.1 35.8
09:20 1022 30.18 851 25.13 12.8 55.1 47 2 35.5
09:25 1022 30.18 851 25.13 13.1 55.6 47 2 35.6
09:30 1022 30.18 851 25.13 13.1 55.6 46 1.9 35.4
09:35 1022 30.18 851 25.13 13 55.4 47 2 35.6
09:40 1022 30.18 851 25.13 13.1 55.5 45 1.6 34.8
09:45 1022 30.18 851 25.13 13.1 55.6 45 1.6 34.8
09:50 1022 30.18 851 25.13 13.5 56.4 44 1.6 34.9
09:55 1022 30.18 851 25.13 13.8 56.8 44 1.8 35.3
10:00 1022 30.18 851 25.13 13.4 56.1 43 1.3 34.3
10:05 1022 30.18 851 25.13 13.6 56.4 43 1.3 34.4
10:10 1022 30.18 851 25.13 13.8 56.8 42 1.3 34.4
10:15 1022 30.18 851 25.13 14.1 57.3 41 1.3 34.3
10:20 1022 30.18 851 25.13 14.5 58 41 1.5 34.7
10:25 1022 30.18 851 25.13 14.8 58.7 39 1.3 34.3
10:30 1022 30.18 851 25.13 14.7 58.5 40 1.3 34.4
10:35 1022 30.18 851 25.13 14.6 58.3 39 1 33.8
10:40 1022 30.18 851 25.13 14.9 58.9 38 0.9 33.6
10:45 1021 30.15 851 25.13 14.9 58.8 40 1.5 34.6
10:50 1021 30.15 851 25.13 15.6 60.1 37 1.2 34.2
10:55 1021 30.15 851 25.13 15.4 59.8 37 1.1 33.9
11:00 1021 30.15 851 25.13 15.1 59.1 39 1.2 34.2
11:05 1021 30.15 850 25.1 15.2 59.4 38 1 33.9
11:10 1021 30.15 850 25.1 15.5 59.9 39 1.6 34.9
11:15 1021 30.15 850 25.1 15.6 60 38 1.6 34.8
11:20 1021 30.15 850 25.1 16.1 61 42 3.3 37.9
11:25 1021 30.15 850 25.1 16.7 62.1 40 3.2 37.8
11:30 1021 30.15 850 25.1 16.9 62.3 38 2.7 36.9
11:35 1021 30.15 850 25.1 17 62.7 39 3.2 37.8
11:40 1021 30.15 850 25.1 16.6 61.8 39 2.5 36.5
11:45 1021 30.15 850 25.1 16 60.8 40 2.5 36.5
11:50 1021 30.15 850 25.1 16.6 61.8 38 2.4 36.3
11:55 1021 30.15 850 25.1 17.6 63.7 38 3.3 38
12:00 1021 30.15 850 25.1 16.6 61.8 40 3.1 37.7
12:05 1021 30.15 850 25.1 16.2 61.1 41 3.1 37.6
12:10 1021 30.15 850 25.1 16.2 61.1 42 3.3 37.9
12:15 1020 30.12 850 25.1 16.5 61.6 40 2.9 37.2
12:20 1020 30.12 850 25.1 16.5 61.7 40 2.9 37.2
12:25 1020 30.12 850 25.1 17.3 63.1 37 2.7 36.9
12:30 1020 30.12 849 25.07 17.5 63.5 37 2.7 36.9
12:35 1020 30.12 849 25.07 17.3 63.2 36 2.4 36.3
12:40 1020 30.12 849 25.07 18.4 65 35 2.7 36.9
12:45 1020 30.12 849 25.07 18.9 66 34 2.8 37
12:50 1020 30.12 849 25.07 18.1 64.5 36 2.8 37
12:55 1020 30.12 849 25.07 18.1 64.6 35 2.6 36.7
13:00 1020 30.12 849 25.07 18.5 65.4 34 2.6 36.6
13:05 1020 30.12 849 25.07 17.6 63.6 36 2.4 36.3
13:10 1020 30.12 849 25.07 17.7 63.8 35 2.1 35.9
13:15 1020 30.12 849 25.07 18.9 66 33 2.3 36.1
13:20 1020 30.12 849 25.07 18.9 66 33 2.5 36.6
13:25 1020 30.12 849 25.07 19.4 66.9 31 1.9 35.3
13:30 1020 30.12 849 25.07 19.6 67.3 32 2.7 36.9
13:35 1020 30.12 849 25.07 18.7 65.6 35 3 37.3
13:40 1020 30.12 849 25.07 17.7 63.8 35 2.3 36.1
13:45 1020 30.12 849 25.07 18.6 65.4 33 2.2 35.9
13:50 1020 30.12 849 25.07 19.4 67 33 2.7 36.9
13:55 1019 30.09 849 25.07 19.4 67 32 2.5 36.4
14:00 1019 30.09 849 25.07 18.8 65.8 34 2.8 37
14:05 1019 30.09 849 25.07 18.9 66.1 32 1.9 35.5
14:10 1019 30.09 848 25.04 19.7 67.5 31 2.4 36.3
14:15 1019 30.09 848 25.04 20.2 68.3 30 2.3 36.2
14:20 1019 30.09 848 25.04 19.7 67.5 30 1.8 35.3
14:25 1019 30.09 848 25.04 19.8 67.6 30 1.7 35.1
14:30 1019 30.09 848 25.04 20.3 68.5 29 1.8 35.3
14:35 1019 30.09 848 25.04 20.5 68.8 29 2 35.5
14:40 1019 30.09 848 25.04 19.9 67.8 31 2.4 36.2
14:45 1019 30.09 848 25.04 19.6 67.2 31 2.3 36.1
14:50 1019 30.09 848 25.04 18.9 66 32 1.9 35.4
14:55 1019 30.09 848 25.04 18.4 65.1 32 1.5 34.8
15:00 1019 30.09 848 25.04 19 66.2 31 1.8 35.2
15:05 1019 30.09 848 25.04 19.2 66.5 32 2.1 35.8
15:10 1019 30.09 848 25.04 19.4 66.8 32 2.6 36.7
15:15 1019 30.09 848 25.04 19.5 67.1 32 2.5 36.5
15:20 1019 30.09 848 25.04 18.9 66.1 33 2.3 36.2
15:25 1019 30.09 848 25.04 19.4 66.9 32 2.3 36.2
15:30 1018 30.06 848 25.04 19.4 66.8 32 2.3 36.1
15:35 1018 30.06 848 25.04 19.4 66.9 32 2.2 36
15:40 1018 30.06 848 25.04 19.2 66.6 29 0.8 33.4
15:45 1018 30.06 848 25.04 18.7 65.7 31 1.4 34.6
15:50 1018 30.06 848 25.04 18.4 65.1 31 1 33.8
15:55 1018 30.06 847 25.01 18.3 64.9 31 0.9 33.6
16:00 1018 30.06 847 25.01 18.2 64.7 32 1.1 34
16:05 1018 30.06 847 25.01 18.4 65.1 32 1.5 34.7
16:10 1018 30.06 847 25.01 18.3 65 32 1.7 35
16:15 1018 30.06 847 25.01 18.1 64.5 33 1.8 35.3
16:20 1018 30.06 847 25.01 17.7 63.8 34 1.6 34.9
16:25 1018 30.06 847 25.01 17.3 63.1 34 1.6 34.8
16:30 1018 30.06 847 25.01 17.5 63.4 36 2.2 36
16:35 1018 30.06 848 25.04 17.5 63.5 37 2.6 36.6
16:40 1019 30.09 848 25.04 17.3 63.1 37 2.4 36.4
16:45 1019 30.09 848 25.04 17.1 62.8 37 2.6 36.7
16:50 1019 30.09 848 25.04 17 62.5 41 3.8 38.8
16:55 1019 30.09 848 25.04 16.7 62 39 2.9 37.3
17:00 1019 30.09 848 25.04 16 60.8 45 4.2 39.6
17:05 1019 30.09 848 25.04 13.8 56.9 61 6.6 43.9
17:10 1019 30.09 849 25.07 12.3 54.1 67 6.3 43.4
17:15 1020 30.12 849 25.07 11.8 53.3 69 6.3 43.3
17:20 1020 30.12 849 25.07 11.6 52.9 68 6.1 42.9
17:25 1020 30.12 849 25.07 11.6 52.8 69 6.1 43
17:30 1019 30.09 849 25.07 11.5 52.7 71 6.4 43.4
17:35 1019 30.09 848 25.04 11.3 52.4 72 6.4 43.5
17:40 1019 30.09 848 25.04 11.4 52.4 72 6.5 43.7
17:45 1019 30.09 848 25.04 11.3 52.4 74 6.8 44.2
17:50 1019 30.09 848 25.04 11.3 52.3 72 6.5 43.6
17:55 1019 30.09 848 25.04 11.3 52.4 71 6.3 43.3
18:00 1019 30.09 848 25.04 11.3 52.3 69 5.9 42.6
18:05 1019 30.09 848 25.04 11.5 52.6 72 6.5 43.8
18:10 1019 30.09 848 25.04 11.6 52.9 72 6.7 44.1
18:15 1019 30.09 848 25.04 11.8 53.2 70 6.5 43.6
18:20 1019 30.09 848 25.04 11.8 53.3 66 5.8 42.4
18:25 1019 30.09 848 25.04 11.8 53.3 71 6.7 44
18:30 1019 30.09 848 25.04 11.9 53.4 71 6.8 44.3
18:35 1019 30.09 848 25.04 11.5 52.8 70 6.3 43.3
18:40 1019 30.09 848 25.04 11.6 52.8 67 5.8 42.4
18:45 1019 30.09 848 25.04 11.7 53 68 6 42.7
18:50 1019 30.09 848 25.04 11.5 52.7 68 5.8 42.5
18:55 1019 30.09 848 25.04 11.4 52.5 68 5.8 42.4
19:00 1019 30.09 848 25.04 11.4 52.4 71 6.3 43.4
19:05 1019 30.09 848 25.04 11.2 52.2 69 5.8 42.5
19:10 1019 30.09 848 25.04 11.3 52.3 67 5.5 41.8
19:15 1019 30.09 848 25.04 11.2 52.2 71 6.1 43
19:20 1019 30.09 848 25.04 11.1 52 71 6.1 43.1
19:25 1018 30.06 848 25.04 11 51.8 70 5.8 42.4
19:30 1018 30.06 848 25.04 11 51.8 70 5.8 42.4
19:35 1018 30.06 848 25.04 11 51.8 70 5.7 42.3
19:40 1019 30.09 848 25.04 11 51.8 68 5.4 41.7
19:45 1019 30.09 848 25.04 11 51.8 69 5.5 41.9
19:50 1019 30.09 848 25.04 10.9 51.7 70 5.6 42.1
19:55 1019 30.09 848 25.04 10.8 51.5 69 5.3 41.6
20:00 1019 30.09 848 25.04 10.9 51.7 67 5 41
20:05 1019 30.09 848 25.04 11 51.8 67 5.2 41.3
20:10 1019 30.09 848 25.04 10.9 51.7 69 5.6 42
20:15 1019 30.09 848 25.04 10.7 51.3 72 5.9 42.6
20:20 1019 30.09 848 25.04 10.5 50.9 73 5.9 42.6
20:25 1019 30.09 848 25.04 10.4 50.6 73 5.7 42.2
20:30 1019 30.09 848 25.04 10.1 50.2 73 5.5 42
20:35 1019 30.09 848 25.04 10 49.9 73 5.4 41.7
20:40 1019 30.09 848 25.04 9.9 49.7 74 5.4 41.7
20:45 1019 30.09 848 25.04 9.7 49.4 74 5.3 41.6
20:50 1019 30.09 848 25.04 9.6 49.3 74 5.3 41.5
20:55 1019 30.09 848 25.04 9.5 49.1 75 5.3 41.5
21:00 1019 30.09 848 25.04 9.5 49 75 5.2 41.3
21:05 1019 30.09 848 25.04 9.4 48.9 75 5.3 41.5
21:10 1019 30.09 848 25.04 9.3 48.7 76 5.3 41.5
21:15 1019 30.09 848 25.04 9.2 48.6 77 5.4 41.7
21:20 1019 30.09 848 25.04 9.1 48.4 77 5.3 41.5
21:25 1019 30.09 848 25.04 9 48.3 77 5.3 41.6
21:30 1019 30.09 848 25.04 8.9 48.1 78 5.2 41.4
21:35 1019 30.09 848 25.04 8.9 48 78 5.3 41.5
21:40 1019 30.09 848 25.04 8.9 47.9 78 5.3 41.5
21:45 1019 30.09 848 25.04 8.8 47.8 79 5.3 41.5
21:50 1019 30.09 848 25.04 8.7 47.7 79 5.3 41.5
21:55 1019 30.09 848 25.04 8.7 47.7 79 5.2 41.4
22:00 1019 30.09 848 25.04 8.7 47.6 79 5.3 41.5
22:05 1018 30.06 848 25.04 8.6 47.5 80 5.3 41.5
22:10 1018 30.06 848 25.04 8.6 47.5 79 5.2 41.4
22:15 1018 30.06 848 25.04 8.7 47.6 79 5.2 41.4
22:20 1018 30.06 847 25.01 8.7 47.7 79 5.3 41.5
22:25 1018 30.06 847 25.01 8.7 47.7 79 5.3 41.6
22:30 1018 30.06 847 25.01 8.8 47.8 79 5.3 41.5
22:35 1018 30.06 847 25.01 8.8 47.8 79 5.3 41.5
22:40 1018 30.06 847 25.01 8.7 47.7 79 5.3 41.5
22:45 1018 30.06 847 25.01 8.7 47.6 79 5.2 41.4
22:50 1018 30.06 847 25.01 8.7 47.6 79 5.2 41.3
22:55 1018 30.06 847 25.01 8.7 47.6 78 5.2 41.3
23:00 1018 30.06 847 25.01 8.7 47.7 77 5 41.1
23:05 1018 30.06 847 25.01 8.8 47.8 77 5 41.1
23:10 1018 30.06 847 25.01 8.8 47.8 77 5 41
23:15 1018 30.06 847 25.01 8.8 47.9 76 4.9 40.8
23:20 1018 30.06 847 25.01 8.9 48.1 76 5 41
23:25 1018 30.06 847 25.01 8.9 48.1 77 5.1 41.1
23:30 1018 30.06 847 25.01 8.9 48 77 5.2 41.3
23:35 1018 30.06 847 25.01 8.8 47.9 78 5.2 41.3
23:40 1018 30.06 847 25.01 8.7 47.7 79 5.2 41.4
23:45 1018 30.06 847 25.01 8.6 47.5 79 5.2 41.4
23:50 1018 30.06 848 25.04 8.6 47.5 79 5.2 41.4
23:55 1019 30.09 848 25.04 8.6 47.4 79 5.2 41.4
24:00 1019 30.09 848 25.04 8.5 47.3 79 5.1 41.2